Shipshewana, IN

7:20 PM EDT on May 27, 2015 (GMT -0400)
Goshen Municipal | | Change Station
CLOSE
Current Station
Airport
Location: Goshen,
Elevation: 827 ft
Nearby Weather Stations

Elev 827 ft 41.53 °N, 85.79 °W | Updated 27 minutes ago

Partly Cloudy
Partly Cloudy
70 °F
Feels Like 70 °F
N
12
Wind Variable Wind from WNW

Today
High -- | Low -- °F
--% Chance of Precip.
Yesterday
High -- | Low -- °F
Precip. -- in
6:13 AM 9:06 PM
Waxing Gibbous, 71% visible
Pressure 30.01 in
Visibility 10.0 miles
Clouds Few 4700 ft
Mostly Cloudy 8000 ft
Overcast 9500 ft
Dew Point 58 °F
Humidity 65%
Rainfall 0.00 in
Snow Depth Not available.
UV 1 out of 12
Pollen 9.70 out of 12
Air Quality Not available.
Flu Activity Sporadic
METAR KGSH 272253Z AUTO 30010KT 10SM FEW047 BKN080 OVC095 21/14 A3002 RMK AO2 SLP162 T02110144 TSNO

More Conditions Fewer Conditions

Pressure 30.01 in
Visibility 10.0 miles
Clouds Few 4700 ft
Mostly Cloudy 8000 ft
Overcast 9500 ft
Dew Point 58 °F
Humidity 65%
Rainfall 0.00 in
Snow Depth Not available.
UV 1 out of 12
Pollen 9.70 out of 12
Air Quality Not available.
Flu Activity Sporadic
METAR KGSH 272253Z AUTO 30010KT 10SM FEW047 BKN080 OVC095 21/14 A3002 RMK AO2 SLP162 T02110144 TSNO

More Conditions Fewer Conditions

10-Day Weather Forecast

Almanac

Astronomy

May. 27, 2015 Rise Set
Actual Time
Civil Twilight
Nautical Twilight
Astronomical Twilight
Moon
Length of Visible Light
Length of Day
Tomorrow will be .
, % of the Moon is Illuminated

Today's Extremes

State Highs State Lows

Community

WunderPhotos

Upload Photos

1,824,818 photos uploaded!

WunderBlogs® & News

Nearby

Air Quality

  Air Quality AQ Index Pollutant
Not available.

Snow Depth

Station Depth Elevation

Earthquake Activity

City Distance Mag. Time & Date
Minimum magnitude displayed is 2.5.

Coastal Water Temperatures

Place Temperature

Stations

Nearby Weather Stations

Station Location Temp. Windchill Dew Point Humidity Wind Precip. Elev Updated Type